Agana Heights, GU

4:19 AM ChST on August 31, 2014 (GMT +1000)
Maite | Change Station
CLOSE
Current Station
Personal Weather Station
Location: Maite, GU
Elevation: 140 ft
Nearby Weather Stations

Elev 140 ft 13.48 °N, 144.76 °E | Updated 2 seconds ago

Partly Cloudy
Partly Cloudy
77.7 °F
Feels Like 80 °F
N
2.0
Wind Variable Wind from SSE
Gusts 4.0 mph

Today
High -- | Low -- °F
--% Chance of Precip.
Yesterday
High -- | Low -- °F
Precip. -- in
6:09 AM 6:33 PM
Waxing Crescent, 23% visible
Pressure 29.72 in
Visibility 10.0 miles
Clouds Few 2000 ft
Heat Index 80 °F
Dew Point 76 °F
Humidity 96%
Rainfall 0.00 in
Snow Depth Not available.
UV 0.0 out of 12
Pollen Not available.
Air Quality Not available.
Flu Activity Not available.
METAR PGUM 301754Z 11003KT 10SM FEW020 27/24 A2974 RMK AO2 SLP063 T02670244 10278 20261 56010

More Conditions Fewer Conditions

Pressure 29.72 in
Visibility 10.0 miles
Clouds Few 2000 ft
Heat Index 80 °F
Dew Point 76 °F
Humidity 96%
Rainfall 0.00 in
Snow Depth Not available.
UV 0.0 out of 12
Pollen Not available.
Air Quality Not available.
Flu Activity Not available.
METAR PGUM 301754Z 11003KT 10SM FEW020 27/24 A2974 RMK AO2 SLP063 T02670244 10278 20261 56010

More Conditions Fewer Conditions

10-Day Weather Forecast

Almanac

Astronomy

Aug. 31, 2014 Rise Set
Actual Time 6:09 AM ChST 6:33 PM ChST
Civil Twilight 5:48 AM ChST 6:54 PM ChST
Nautical Twilight 5:22 AM ChST 7:19 PM ChST
Astronomical Twilight 4:57 AM ChST 7:45 PM ChST
Moon 10:22 AM ChST (8/31) 10:18 PM ChST (8/31)
Length of Visible Light 13h 06m
Length of Day
12h 23m
Tomorrow will be 0m 43s shorter.
Waxing Crescent, 23% of the Moon is Illuminated
Aug 30
Waxing Crescent
Sep 2
First Quarter
Sep 8
Full
Sep 15
Last Quarter
Sep 24
New

Community

WunderPhotos

Upload Photos

1,748,583 photos uploaded!

WunderBlogs® & News

Nearby

Snow Depth

Station Depth Elevation
No new snow has been reported.

Earthquake Activity

City Distance Mag. Time & Date
No recent earthquake activity has been reported nearby.
Minimum magnitude displayed is 2.5.

Coastal Water Temperatures

Place Temperature
No Stations Reporting

Nearby Weather Stations